Time;durP1;ratioP1;P1;durP2;ratioP2;P2;SDS_P1;SDS_P2;PMS_P1;PMS_P2;Temp;Humidity;BMP_temperature;BMP_pressure;BME280_temperature;BME280_humidity;BME280_pressure;Samples;Min_cycle;Max_cycle;Signal;HPM_P1;HPM_P2
2022/07/29 00:13:35;;;;;;;;;;;;;;;;;;;;;
2022/07/29 00:24:58;;;;;;;1.05;0.68;;;18.00;1.00;;;;;;5913951;24;20002;-90
2022/07/29 00:29:01;;;;;;;2.20;0.35;;;18.00;1.00;;;;;;6020669;23;20031;-90
2022/07/29 04:06:25;;;;;;;2.20;1.17;;;17.50;1.00;;;;;;6209443;22;20352;-90
2022/07/29 04:09:23;;;;;;;2.78;1.00;;;17.60;1.00;;;;;;6194772;23;20096;-92
2022/07/29 04:16:14;;;;;;;1.77;1.10;;;17.30;1.00;;;;;;6214383;22;20025;-90
2022/07/29 04:45:18;;;;;;;8.38;1.58;;;17.40;1.00;;;;;;6216887;22;20472;-90
2022/07/29 04:48:53;;;;;;;;;;;;;;;;;;;;;
2022/07/29 04:53:19;;;;;;;;;;;;;;;;;;;;;
2022/07/29 04:57:25;;;;;;;;;;;;;;;;;;;;;
2022/07/29 05:04:41;;;;;;;5.75;1.05;;;17.50;1.00;;;;;;5926449;23;20099;-91
2022/07/29 05:08:20;;;;;;;3.63;1.13;;;17.50;1.00;;;;;;5981864;24;20114;-89
2022/07/29 05:12:30;;;;;;;4.00;1.08;;;17.50;1.00;;;;;;5927034;24;20032;-91
2022/07/29 06:46:10;;;;;;;4.38;1.15;;;17.80;1.00;;;;;;6170699;23;20031;-92
2022/07/29 06:49:43;;;;;;;3.40;1.35;;;17.90;1.00;;;;;;6170649;23;20070;-90
2022/07/29 06:57:27;;;;;;;2.42;0.93;;;17.90;1.00;;;;;;6092414;23;20504;-90
2022/07/29 07:00:37;;;;;;;1.13;0.55;;;18.00;1.00;;;;;;6177566;23;20072;-93
2022/07/29 13:07:49;;;;;;;4.82;1.40;;;23.50;1.00;;;;;;6211302;22;20024;-90
2022/07/29 14:12:24;;;;;;;9.70;3.10;;;24.90;1.00;;;;;;6205328;22;20107;-91
2022/07/29 16:01:29;;;;;;;2.97;1.27;;;27.90;1.00;;;;;;6211627;22;20044;-91
2022/07/29 16:03:59;;;;;;;5.45;1.30;;;28.00;1.00;;;;;;6189227;23;20021;-90
2022/07/29 16:06:37;;;;;;;4.43;1.50;;;28.00;1.00;;;;;;6189784;23;20020;-90
2022/07/29 17:17:18;;;;;;;2.28;1.40;;;27.50;1.00;;;;;;6251678;22;20024;-95
2022/07/29 17:20:12;;;;;;;3.60;1.10;;;27.30;1.00;;;;;;6229478;23;20440;-91
2022/07/29 17:22:50;;;;;;;3.80;1.80;;;27.00;1.00;;;;;;6224437;23;20391;-91
2022/07/29 17:26:02;;;;;;;4.13;1.80;;;26.80;1.00;;;;;;6169031;23;20100;-90
2022/07/29 17:28:48;;;;;;;6.37;1.27;;;26.80;1.00;;;;;;6167296;23;20598;-91
2022/07/29 17:31:35;;;;;;;2.40;1.38;;;26.80;1.00;;;;;;6167484;23;20090;-91
2022/07/29 17:34:49;;;;;;;2.90;1.20;;;26.70;1.00;;;;;;6214513;23;20330;-90
2022/07/29 17:37:58;;;;;;;2.23;1.57;;;26.20;1.00;;;;;;6173046;23;20019;-91
2022/07/29 17:40:27;;;;;;;2.63;1.38;;;26.20;1.00;;;;;;6191852;23;20021;-91
2022/07/29 17:42:55;;;;;;;4.28;1.50;;;26.10;1.00;;;;;;6166367;23;20036;-92
2022/07/29 17:45:26;;;;;;;3.70;1.33;;;26.10;1.00;;;;;;6191093;23;20084;-89
2022/07/29 17:48:20;;;;;;;4.90;1.90;;;26.10;1.00;;;;;;6201637;23;20027;-90
2022/07/29 17:50:53;;;;;;;3.97;1.65;;;26.00;1.00;;;;;;6217943;23;20027;-90
2022/07/29 17:53:28;;;;;;;3.03;0.95;;;25.70;1.00;;;;;;6194745;23;20011;-91
2022/07/29 17:56:16;;;;;;;2.92;1.40;;;25.70;1.00;;;;;;6193323;23;20031;-90
2022/07/29 17:58:55;;;;;;;2.58;1.65;;;25.70;1.00;;;;;;6218629;23;20047;-92
2022/07/29 18:01:32;;;;;;;3.58;1.65;;;25.40;1.00;;;;;;6218225;23;20047;-91
2022/07/29 18:04:19;;;;;;;3.83;1.63;;;25.30;1.00;;;;;;6217984;23;20040;-92
2022/07/29 18:06:56;;;;;;;5.30;2.20;;;25.40;1.00;;;;;;6191323;23;20024;-91
2022/07/29 18:09:30;;;;;;;3.58;2.00;;;25.40;1.00;;;;;;6168568;23;20218;-91
2022/07/29 18:12:02;;;;;;;2.43;1.30;;;25.40;1.00;;;;;;6190332;23;20032;-90
2022/07/29 18:14:29;;;;;;;2.65;1.40;;;25.20;1.00;;;;;;6164694;23;20043;-89
2022/07/29 18:16:59;;;;;;;4.05;1.75;;;25.10;1.00;;;;;;6190843;23;20078;-90
2022/07/29 18:19:30;;;;;;;4.17;1.37;;;25.00;1.00;;;;;;6191681;23;20066;-90
2022/07/29 18:22:00;;;;;;;3.90;1.77;;;24.50;1.00;;;;;;6216650;23;20242;-92
2022/07/29 18:24:34;;;;;;;4.63;1.50;;;24.30;1.00;;;;;;6190245;23;20355;-89
2022/07/29 18:27:01;;;;;;;6.32;2.35;;;24.50;1.00;;;;;;6190600;23;20032;-90
2022/07/29 18:29:34;;;;;;;2.35;1.52;;;24.60;1.00;;;;;;6166461;23;20021;-90
2022/07/29 18:32:05;;;;;;;5.57;1.55;;;24.60;1.00;;;;;;6189933;23;20020;-93
2022/07/29 18:34:36;;;;;;;3.35;1.48;;;24.50;1.00;;;;;;6216658;23;20020;-92
2022/07/29 18:37:06;;;;;;;5.57;1.48;;;24.40;1.00;;;;;;6165292;23;20104;-90
2022/07/29 18:39:38;;;;;;;6.68;1.95;;;24.20;1.00;;;;;;6165739;23;20021;-90
2022/07/29 18:42:10;;;;;;;5.85;1.67;;;24.00;1.00;;;;;;6189879;23;20044;-90
2022/07/29 18:44:38;;;;;;;2.42;1.33;;;24.00;1.00;;;;;;6165047;23;20017;-90
2022/07/29 18:47:15;;;;;;;3.33;1.40;;;24.00;1.00;;;;;;6190130;23;20027;-90
2022/07/29 18:49:48;;;;;;;2.42;1.33;;;24.00;1.00;;;;;;6165877;23;20349;-92
2022/07/29 18:52:20;;;;;;;3.88;1.60;;;24.00;1.00;;;;;;6190605;23;20020;-90
2022/07/29 18:54:56;;;;;;;3.75;1.40;;;23.90;1.00;;;;;;6190173;23;20024;-92
2022/07/29 18:57:27;;;;;;;2.85;1.60;;;23.80;1.00;;;;;;6189693;23;20016;-89
2022/07/29 19:00:17;;;;;;;2.60;1.45;;;23.90;1.00;;;;;;6189962;23;20021;-91
2022/07/29 19:02:51;;;;;;;4.25;1.85;;;23.80;1.00;;;;;;6166232;23;20024;-91
2022/07/29 19:05:19;;;;;;;2.78;1.48;;;23.80;1.00;;;;;;6190333;23;20475;-91
2022/07/29 19:07:49;;;;;;;2.85;1.27;;;23.70;1.00;;;;;;6189869;23;20016;-88
2022/07/29 19:10:16;;;;;;;4.45;1.55;;;23.60;1.00;;;;;;6189734;23;20074;-90
2022/07/29 19:12:51;;;;;;;;;;;23.60;1.00;;;;;;6191688;23;20039;-91
2022/07/29 19:15:20;;;;;;;3.03;1.58;;;23.30;1.00;;;;;;6189557;23;19936;-90
2022/07/29 19:17:49;;;;;;;4.38;1.42;;;23.40;1.00;;;;;;6190393;23;20027;-93
2022/07/29 19:20:26;;;;;;;5.18;1.92;;;23.30;1.00;;;;;;6167309;23;20043;-91
2022/07/29 19:22:57;;;;;;;3.33;1.40;;;23.30;1.00;;;;;;6190291;23;20059;-87
2022/07/29 19:25:32;;;;;;;5.18;1.67;;;23.20;1.00;;;;;;6216423;23;20099;-89
2022/07/29 19:28:06;;;;;;;3.20;1.50;;;23.20;1.00;;;;;;6165346;23;20032;-91
2022/07/29 19:30:33;;;;;;;6.20;1.60;;;23.20;1.00;;;;;;6189198;23;20018;-90
2022/07/29 19:33:06;;;;;;;3.45;1.63;;;23.10;1.00;;;;;;6190005;23;20016;-89
2022/07/29 19:35:35;;;;;;;3.28;1.15;;;23.00;1.00;;;;;;6216081;23;20013;-92
2022/07/29 19:38:05;;;;;;;3.42;1.20;;;22.90;1.00;;;;;;6216035;23;20075;-90
2022/07/29 19:40:37;;;;;;;4.45;1.50;;;22.90;1.00;;;;;;6189875;23;20104;-91
2022/07/29 19:43:08;;;;;;;2.40;1.50;;;22.70;1.00;;;;;;6165108;23;20023;-90
2022/07/29 19:45:58;;;;;;;3.35;1.70;;;22.80;1.00;;;;;;6189881;23;20020;-88
2022/07/29 19:48:28;;;;;;;6.80;1.85;;;22.80;1.00;;;;;;6189873;23;20047;-89
2022/07/29 19:51:08;;;;;;;5.38;1.70;;;22.70;1.00;;;;;;6191232;23;20047;-91
2022/07/29 19:53:37;;;;;;;1.88;1.30;;;22.60;1.00;;;;;;6190432;23;20040;-91
2022/07/29 19:56:07;;;;;;;4.25;1.88;;;22.60;1.00;;;;;;6189668;23;20020;-90
2022/07/29 19:58:39;;;;;;;3.28;1.70;;;22.50;1.00;;;;;;6165167;23;20374;-92
2022/07/29 20:01:10;;;;;;;2.22;1.30;;;22.50;1.00;;;;;;6165353;23;20458;-91
2022/07/29 20:03:43;;;;;;;2.60;1.70;;;22.50;1.00;;;;;;6189074;23;20048;-90
2022/07/29 20:06:26;;;;;;;3.17;1.50;;;22.40;1.00;;;;;;6189979;23;20020;-90
2022/07/29 20:09:01;;;;;;;3.08;1.38;;;22.40;1.00;;;;;;6189700;23;20103;-90
2022/07/29 20:11:35;;;;;;;3.97;1.92;;;22.30;1.00;;;;;;6189270;23;20078;-89
2022/07/29 20:14:04;;;;;;;3.67;1.60;;;22.30;1.00;;;;;;6164701;23;20094;-90
2022/07/29 20:16:36;;;;;;;2.35;1.30;;;22.20;1.00;;;;;;6189545;23;20103;-91
2022/07/29 20:19:06;;;;;;;2.53;1.17;;;22.20;1.00;;;;;;6165494;23;20021;-90
2022/07/29 20:21:39;;;;;;;2.25;1.45;;;22.20;1.00;;;;;;6190781;23;20105;-91
2022/07/29 20:24:09;;;;;;;;;;;22.10;1.00;;;;;;6190719;23;20070;-91
2022/07/29 20:26:39;;;;;;;3.28;1.42;;;22.10;1.00;;;;;;6189434;23;19916;-90
2022/07/29 20:29:07;;;;;;;4.40;1.80;;;22.00;1.00;;;;;;6189831;23;20059;-91
2022/07/29 20:31:41;;;;;;;4.40;1.88;;;21.90;1.00;;;;;;6194731;23;20035;-90
2022/07/29 20:34:25;;;;;;;2.53;1.35;;;21.90;1.00;;;;;;6220177;23;19992;-91
2022/07/29 20:37:01;;;;;;;3.03;1.75;;;21.90;1.00;;;;;;6193924;23;20012;-88
2022/07/29 20:39:29;;;;;;;3.13;1.65;;;21.80;1.00;;;;;;6193638;23;20024;-90
2022/07/29 20:41:58;;;;;;;2.92;1.63;;;21.80;1.00;;;;;;6219226;23;19997;-89
2022/07/29 20:44:28;;;;;;;1.85;1.20;;;21.70;1.00;;;;;;6210831;23;20019;-89
2022/07/29 20:46:56;;;;;;;2.72;1.30;;;21.60;1.00;;;;;;6165907;23;20020;-89
2022/07/29 20:49:27;;;;;;;2.42;1.40;;;21.70;1.00;;;;;;6190581;23;20013;-91
2022/07/29 20:51:55;;;;;;;2.85;1.70;;;21.60;1.00;;;;;;6189719;23;20028;-89
2022/07/29 20:54:25;;;;;;;4.97;1.60;;;21.50;1.00;;;;;;6189791;23;20025;-88
2022/07/29 20:56:58;;;;;;;2.67;1.60;;;21.50;1.00;;;;;;6192270;23;20013;-91
2022/07/29 20:59:29;;;;;;;3.33;1.45;;;21.50;1.00;;;;;;6168006;23;20021;-91
2022/07/29 21:01:58;;;;;;;4.38;2.15;;;21.40;1.00;;;;;;6189737;23;20023;-90
2022/07/29 21:04:28;;;;;;;2.95;1.25;;;21.30;1.00;;;;;;6190191;23;20051;-89
2022/07/29 21:07:05;;;;;;;2.78;1.50;;;21.30;1.00;;;;;;6167132;23;20025;-91
2022/07/29 21:09:32;;;;;;;3.03;1.58;;;21.30;1.00;;;;;;6166547;23;20031;-91
2022/07/29 21:12:01;;;;;;;6.50;1.73;;;21.30;1.00;;;;;;6166651;23;20027;-93
2022/07/29 21:17:10;;;;;;;5.20;1.92;;;21.20;1.00;;;;;;6217463;23;20013;-93
2022/07/29 21:19:43;;;;;;;3.70;1.60;;;21.20;1.00;;;;;;6167119;23;20067;-90
2022/07/29 21:22:15;;;;;;;3.88;1.80;;;21.20;1.00;;;;;;6196810;23;20008;-92
2022/07/29 21:24:47;;;;;;;5.18;2.05;;;21.10;1.00;;;;;;6191941;23;20062;-93
2022/07/29 21:30:06;;;;;;;3.67;1.83;;;21.00;1.00;;;;;;6217283;23;20040;-92
2022/07/29 21:32:39;;;;;;;7.28;3.15;;;21.00;1.00;;;;;;6190748;23;20048;-93
2022/07/29 21:35:10;;;;;;;2.67;1.60;;;21.00;1.00;;;;;;6166731;23;20087;-90
2022/07/29 21:38:00;;;;;;;1.90;1.35;;;21.00;1.00;;;;;;6190673;23;20267;-93
2022/07/29 21:40:30;;;;;;;2.95;1.45;;;20.90;1.00;;;;;;6217253;23;20024;-91
2022/07/29 21:43:02;;;;;;;2.92;1.63;;;20.90;1.00;;;;;;6190665;23;20417;-90
2022/07/29 21:45:35;;;;;;;3.47;1.80;;;20.90;1.00;;;;;;6191129;23;20016;-91
2022/07/29 21:48:04;;;;;;;2.70;2.00;;;20.80;1.00;;;;;;6166276;23;20021;-92
2022/07/29 21:50:32;;;;;;;2.72;1.67;;;20.80;1.00;;;;;;6166392;23;20064;-91
2022/07/29 21:53:02;;;;;;;1.75;1.45;;;20.80;1.00;;;;;;6166572;23;20024;-91
2022/07/29 21:55:32;;;;;;;3.40;1.95;;;20.80;1.00;;;;;;6191258;23;20016;-90
2022/07/29 21:57:59;;;;;;;2.53;1.55;;;20.70;1.00;;;;;;6166769;23;20096;-91
2022/07/29 22:00:32;;;;;;;2.90;1.70;;;20.70;1.00;;;;;;6166904;23;20013;-90
2022/07/29 22:03:01;;;;;;;3.60;1.80;;;20.70;1.00;;;;;;6190034;23;20017;-91
2022/07/29 22:05:31;;;;;;;4.60;2.15;;;20.60;1.00;;;;;;6190673;23;20108;-90
2022/07/29 22:08:00;;;;;;;2.38;1.75;;;20.60;1.00;;;;;;6190170;23;20020;-91
2022/07/29 22:10:29;;;;;;;5.10;2.05;;;20.60;1.00;;;;;;6190816;23;20036;-90
2022/07/29 22:12:58;;;;;;;2.63;1.73;;;20.50;1.00;;;;;;6165711;23;20020;-90
2022/07/29 22:15:29;;;;;;;2.42;1.50;;;20.50;1.00;;;;;;6189750;23;20110;-90
2022/07/29 22:17:56;;;;;;;4.93;2.05;;;20.50;1.00;;;;;;6190908;23;20020;-91
2022/07/29 22:20:27;;;;;;;5.88;2.28;;;20.40;1.00;;;;;;6166833;23;20016;-91
2022/07/29 22:23:00;;;;;;;5.65;2.38;;;20.40;1.00;;;;;;6192533;23;20012;-92
2022/07/29 22:25:34;;;;;;;2.05;1.80;;;20.40;1.00;;;;;;6168666;23;20023;-92
2022/07/29 22:28:36;;;;;;;2.45;1.95;;;20.40;1.00;;;;;;6193150;23;20027;-92
2022/07/29 22:31:30;;;;;;;4.85;1.92;;;20.40;1.00;;;;;;6192841;23;20028;-93
2022/07/29 22:34:12;;;;;;;5.93;2.13;;;20.30;1.00;;;;;;6194171;23;20017;-91
2022/07/29 22:36:44;;;;;;;2.65;2.00;;;20.30;1.00;;;;;;6166816;23;20024;-92
2022/07/29 22:40:03;;;;;;;3.88;2.45;;;20.30;1.00;;;;;;6196745;23;20459;-94
2022/07/29 22:43:02;;;;;;;4.20;2.38;;;20.30;1.00;;;;;;6074189;23;20023;-92
2022/07/29 22:46:13;;;;;;;4.68;1.90;;;20.20;1.00;;;;;;6167060;23;20095;-92
2022/07/29 22:49:08;;;;;;;2.60;2.15;;;20.20;1.00;;;;;;6143618;23;20020;-91
2022/07/29 22:51:54;;;;;;;8.63;2.55;;;20.20;1.00;;;;;;6169390;23;20043;-92
2022/07/29 22:55:15;;;;;;;2.60;1.63;;;20.10;1.00;;;;;;6163430;23;20020;-91
2022/07/29 22:58:24;;;;;;;3.13;2.25;;;20.10;1.00;;;;;;6189800;23;20091;-93
2022/07/29 23:02:08;;;;;;;3.88;2.63;;;20.10;1.00;;;;;;6169655;23;20017;-94
2022/07/29 23:04:51;;;;;;;3.42;2.22;;;20.00;1.00;;;;;;6133089;23;20070;-94
2022/07/29 23:08:04;;;;;;;2.75;2.03;;;20.00;1.00;;;;;;6189947;23;20440;-95
2022/07/29 23:10:52;;;;;;;4.57;2.15;;;19.90;1.00;;;;;;6190526;23;20020;-92
2022/07/29 23:13:38;;;;;;;4.53;3.22;;;19.90;1.00;;;;;;6190252;23;20023;-91
2022/07/29 23:17:22;;;;;;;;;;;19.90;1.00;;;;;;6212777;23;20024;-92
2022/07/29 23:20:26;;;;;;;3.33;2.00;;;19.90;1.00;;;;;;6228023;23;19904;-92
2022/07/29 23:23:25;;;;;;;2.80;2.13;;;19.80;1.00;;;;;;6194071;23;20008;-91
2022/07/29 23:26:45;;;;;;;;;;;;;;;;;;;;;
2022/07/29 23:30:07;;;;;;;4.32;2.20;;;19.80;1.00;;;;;;6203425;23;20023;-93
2022/07/29 23:33:34;;;;;;;8.23;2.42;;;19.70;1.00;;;;;;6162395;23;20017;-91
2022/07/29 23:36:52;;;;;;;;;;;;;;;;;;;;;
2022/07/29 23:39:58;;;;;;;4.43;2.20;;;19.70;1.00;;;;;;6189808;23;20405;-91
2022/07/29 23:42:57;;;;;;;5.93;2.38;;;19.70;1.00;;;;;;6169652;23;20441;-94
2022/07/29 23:46:02;;;;;;;4.82;2.83;;;19.60;1.00;;;;;;6189854;23;20016;-93
2022/07/29 23:48:57;;;;;;;3.83;2.25;;;19.60;1.00;;;;;;6194233;23;20016;-89
2022/07/29 23:56:40;;;;;;;3.97;3.35;;;19.60;1.00;;;;;;6216690;23;20032;-94
2022/07/29 23:59:19;;;;;;;4.72;1.90;;;19.60;1.00;;;;;;6167067;23;20021;-93
